Arthur, West Virginia
Current Conditions -  °F | °C
As of 4:35 PM on Thursday 23 Oct 2014 (Local Time) from KW99 Reporting Station
Scattered Clouds Scattered Clouds  
Wind Chill: 58°   Ceiling: Unl
Heat Index: 58°   Visibility: 10mi
Dew Point: 39°   Wind: 15mph
Humidity: 50%   Direction: 290°WNW
Pressure: 30.01"   Gusts: 18mph
Location:  38.9337°N, 79.1435°W
Report Text: KW99 232035Z AUTO 29013G16KT 10SM SCT040 SCT046 14/04 A3001 RMK AO2 T01430040
Loading
Personal Weather Stations






























Interactive Weather Map
Tropical Storm Tracking
New forecast layout! Learn more

10-Day Weather Forecast

Advertisements
Track Severe Weather on mobile